CEN2 weather

Bassano Airport
Bassano, Alberta, Canada

Public forecast

Using degrees Celsius for public forecast. Weather courtesy of forecast.io.

Closest aviation weather report (METAR) to Bassano Airport

Report is more than 6 hours old.

Closest report is Suffield Heliport, 58.5 nm (108.4 km) ESE. Retrieved 2015/03/31 21:00 UTC (5 years ago):

CYSD 312100Z 25021G28KT 25SM FEW110 FEW180 21/M03 A2950 RMK AC2AC1 DA4379FT THANKS FOR THE MEMORIES SLP992

Closest aviation forecast (TAF) to Bassano Airport

Closest forecast is Calgary International Airport, 61.7 nm (114.2 km) WNW. Retrieved 2020/06/05 21:42 UTC (15 minutes ago):

TAF TAF CYYC 052038Z 0521/0618 16015G25KT P6SM SCT060 BKN250 FM060100 16015KT P6SM SCT040 BKN070 TEMPO 0603/0609 P6SM -SHRA BKN025 OVC050 BECMG 0604/0606 03010KT FM060900 02010KT P6SM -RA SCT006 BKN020 OVC040 TEMPO 0609/0615 21/2SM -RA BR BKN006 OVC012 BECMG 0613/0615 20008KT FM061500 20008KT P6SM SCT012 BKN025 TEMPO 0615/0618 P6SM -RA SCT008 BKN012 OVC025 RMK NXT FCST BY 060000Z